Time;durP1;ratioP1;P1;durP2;ratioP2;P2;SDS_P1;SDS_P2;PMS_P1;PMS_P2;Temp;Humidity;BMP_temperature;BMP_pressure;BME280_temperature;BME280_humidity;BME280_pressure;Samples;Min_cycle;Max_cycle;Signal;HPM_P1;HPM_P2
2023/10/18 00:04:06;;;;;;;16.98;14.65;;;;;;;;;;10066131;28;20068;-71
2023/10/18 00:08:59;;;;;;;19.63;15.07;;;;;;;;;;10028716;28;20049;-70
2023/10/18 00:13:53;;;;;;;18.77;14.13;;;;;;;;;;10029142;28;20112;-72
2023/10/18 00:18:45;;;;;;;15.13;13.30;;;;;;;;;;10043404;28;20443;-72
2023/10/18 00:23:37;;;;;;;15.43;13.55;;;;;;;;;;10027894;28;20037;-72
2023/10/18 00:28:29;;;;;;;17.60;13.75;;;;;;;;;;10028279;28;20053;-71
2023/10/18 00:33:21;;;;;;;15.57;12.85;;;;;;;;;;10027016;28;20513;-70
2023/10/18 00:38:19;;;;;;;23.60;16.33;;;;;;;;;;10025461;28;20042;-70
2023/10/18 00:43:27;;;;;;;16.67;13.95;;;;;;;;;;10042220;28;20107;-72
2023/10/18 00:48:24;;;;;;;18.50;13.63;;;;;;;;;;10028822;28;20042;-69
2023/10/18 00:53:20;;;;;;;20.60;13.05;;;;;;;;;;10042305;28;20065;-72
2023/10/18 00:58:15;;;;;;;14.90;10.73;;;;;;;;;;10028295;28;20048;-72
2023/10/18 01:03:09;;;;;;;15.82;12.40;;;;;;;;;;10026178;28;20172;-72
2023/10/18 01:08:10;;;;;;;16.73;12.13;;;;;;;;;;10027829;28;20042;-72
2023/10/18 01:13:02;;;;;;;14.40;11.40;;;;;;;;;;10036153;28;20044;-69
2023/10/18 01:17:55;;;;;;;12.82;11.07;;;;;;;;;;10026695;28;20045;-73
2023/10/18 01:22:47;;;;;;;14.88;9.57;;;;;;;;;;10027894;28;20060;-73
2023/10/18 01:27:39;;;;;;;11.23;9.40;;;;;;;;;;10028524;28;20034;-71
2023/10/18 01:32:32;;;;;;;13.32;10.80;;;;;;;;;;10042025;28;21439;-71
2023/10/18 01:37:24;;;;;;;12.45;11.15;;;;;;;;;;10027351;28;20037;-69
2023/10/18 01:42:17;;;;;;;11.63;9.18;;;;;;;;;;10027412;28;20388;-70
2023/10/18 01:47:09;;;;;;;8.85;7.95;;;;;;;;;;10026294;28;20104;-70
2023/10/18 01:52:04;;;;;;;10.65;7.38;;;;;;;;;;10042892;28;20061;-71
2023/10/18 01:57:00;;;;;;;9.18;7.40;;;;;;;;;;10034858;28;20060;-70
2023/10/18 02:01:53;;;;;;;7.65;6.85;;;;;;;;;;10057080;28;20057;-70
2023/10/18 02:06:47;;;;;;;5.03;4.07;;;;;;;;;;10062552;28;20049;-71
2023/10/18 02:11:39;;;;;;;4.88;4.25;;;;;;;;;;10052503;28;20068;-70
2023/10/18 02:16:31;;;;;;;4.78;3.78;;;;;;;;;;10056864;28;20129;-70
2023/10/18 02:21:25;;;;;;;4.50;3.90;;;;;;;;;;10051721;28;20050;-70
2023/10/18 02:26:30;;;;;;;6.57;3.67;;;;;;;;;;10035316;28;20049;-71
2023/10/18 02:31:23;;;;;;;5.45;4.15;;;;;;;;;;10051563;28;20042;-70
2023/10/18 02:36:21;;;;;;;5.63;4.18;;;;;;;;;;10057347;28;20410;-71
2023/10/18 02:41:26;;;;;;;4.18;3.67;;;;;;;;;;10034332;28;20122;-71
2023/10/18 02:46:25;;;;;;;5.57;3.67;;;;;;;;;;10032487;28;20484;-71
2023/10/18 02:51:28;;;;;;;9.43;5.30;;;;;;;;;;10046571;28;20037;-69
2023/10/18 02:56:37;;;;;;;6.10;4.18;;;;;;;;;;10032349;28;20061;-68
2023/10/18 03:01:29;;;;;;;8.60;3.70;;;;;;;;;;10030412;28;20615;-71
2023/10/18 03:06:27;;;;;;;5.07;3.67;;;;;;;;;;10029411;28;20096;-71
2023/10/18 03:11:20;;;;;;;5.13;4.30;;;;;;;;;;10029501;28;20026;-68
2023/10/18 03:16:15;;;;;;;4.05;3.65;;;;;;;;;;10045327;28;20045;-71
2023/10/18 03:21:08;;;;;;;5.65;3.58;;;;;;;;;;10030480;28;20058;-70
2023/10/18 03:26:00;;;;;;;4.97;4.13;;;;;;;;;;10030148;28;20042;-69
2023/10/18 03:30:54;;;;;;;6.05;4.13;;;;;;;;;;10028481;28;20091;-70
2023/10/18 03:36:06;;;;;;;5.18;4.43;;;;;;;;;;10030232;28;20495;-70
2023/10/18 03:41:16;;;;;;;11.50;4.60;;;;;;;;;;10029085;28;20404;-70
2023/10/18 03:51:00;;;;;;;7.45;4.45;;;;;;;;;;10028281;28;20535;-70
2023/10/18 03:55:55;;;;;;;6.47;5.22;;;;;;;;;;10028594;28;20045;-71
2023/10/18 04:00:54;;;;;;;6.13;4.25;;;;;;;;;;10044490;28;20060;-71
2023/10/18 04:05:49;;;;;;;6.37;3.73;;;;;;;;;;10028029;28;20619;-71
2023/10/18 04:10:42;;;;;;;9.23;4.30;;;;;;;;;;10028571;28;20488;-69
2023/10/18 04:15:37;;;;;;;8.07;4.70;;;;;;;;;;10027615;28;20077;-70
2023/10/18 04:20:32;;;;;;;8.02;4.80;;;;;;;;;;10028217;28;20208;-70
2023/10/18 04:25:27;;;;;;;4.38;3.92;;;;;;;;;;10026805;28;20077;-69
2023/10/18 04:30:22;;;;;;;6.35;4.63;;;;;;;;;;10030031;28;20144;-71
2023/10/18 04:35:17;;;;;;;6.50;4.80;;;;;;;;;;10027789;28;20049;-71
2023/10/18 04:40:22;;;;;;;6.88;4.45;;;;;;;;;;10028797;28;20045;-69
2023/10/18 04:45:16;;;;;;;6.22;5.63;;;;;;;;;;10027001;28;20045;-70
2023/10/18 04:50:11;;;;;;;7.72;6.28;;;;;;;;;;10027040;28;20041;-71
2023/10/18 04:55:04;;;;;;;8.30;5.43;;;;;;;;;;10027692;28;20089;-71
2023/10/18 05:00:02;;;;;;;6.03;4.22;;;;;;;;;;10060295;28;20106;-70
2023/10/18 05:04:57;;;;;;;6.43;4.50;;;;;;;;;;10063399;28;20152;-70
2023/10/18 05:09:55;;;;;;;5.85;4.13;;;;;;;;;;10063958;28;20479;-69
2023/10/18 05:19:50;;;;;;;6.65;4.38;;;;;;;;;;10060926;28;20115;-70
2023/10/18 05:24:46;;;;;;;7.57;5.35;;;;;;;;;;10035389;28;20041;-70
2023/10/18 05:29:43;;;;;;;7.43;6.10;;;;;;;;;;10033740;28;20077;-71
2023/10/18 05:35:00;;;;;;;8.23;6.28;;;;;;;;;;10032500;28;20153;-68
2023/10/18 05:45:15;;;;;;;8.60;5.30;;;;;;;;;;10028476;28;20042;-70
2023/10/18 05:50:12;;;;;;;7.60;5.60;;;;;;;;;;10031645;28;20056;-72
2023/10/18 05:55:09;;;;;;;10.18;6.47;;;;;;;;;;10028588;28;20045;-73
2023/10/18 06:00:17;;;;;;;10.93;6.40;;;;;;;;;;10029050;28;20052;-71
2023/10/18 06:05:09;;;;;;;14.73;8.25;;;;;;;;;;10030190;28;20052;-69
2023/10/18 06:10:09;;;;;;;9.52;6.93;;;;;;;;;;10031329;28;20069;-71
2023/10/18 06:15:10;;;;;;;10.30;6.40;;;;;;;;;;10035972;28;20137;-69
2023/10/18 06:20:14;;;;;;;10.10;7.07;;;;;;;;;;10030780;28;20088;-70
2023/10/18 06:25:09;;;;;;;7.93;6.93;;;;;;;;;;10029582;28;20045;-73
2023/10/18 06:30:02;;;;;;;12.25;8.68;;;;;;;;;;10030533;28;20359;-71
2023/10/18 06:34:57;;;;;;;9.27;8.00;;;;;;;;;;10029403;28;20427;-70
2023/10/18 06:39:54;;;;;;;13.95;9.23;;;;;;;;;;10030577;28;20514;-73
2023/10/18 06:44:46;;;;;;;11.60;9.43;;;;;;;;;;10025952;28;20527;-74
2023/10/18 06:49:38;;;;;;;10.82;9.02;;;;;;;;;;10024101;28;20278;-74
2023/10/18 06:54:38;;;;;;;14.70;9.73;;;;;;;;;;10041284;28;20377;-72
2023/10/18 06:59:30;;;;;;;17.27;10.20;;;;;;;;;;10025907;28;20132;-73
2023/10/18 07:04:28;;;;;;;10.30;9.20;;;;;;;;;;10024827;28;20045;-73
2023/10/18 07:09:26;;;;;;;13.90;10.33;;;;;;;;;;10025027;28;20049;-74
2023/10/18 07:14:20;;;;;;;16.58;10.30;;;;;;;;;;10026345;28;20100;-73
2023/10/18 07:19:23;;;;;;;11.35;8.77;;;;;;;;;;10027596;28;20046;-74
2023/10/18 07:24:54;;;;;;;14.00;10.38;;;;;;;;;;10028234;28;20056;-74
2023/10/18 07:29:37;;;;;;;15.50;10.85;;;;;;;;;;10026368;28;20046;-73
2023/10/18 07:34:29;;;;;;;12.50;10.02;;;;;;;;;;10026683;28;20070;-70
2023/10/18 07:39:25;;;;;;;15.95;10.57;;;;;;;;;;10035915;28;20037;-70
2023/10/18 07:44:17;;;;;;;14.35;11.60;;;;;;;;;;10029643;28;20144;-70
2023/10/18 07:49:31;;;;;;;14.20;11.45;;;;;;;;;;10027013;28;20124;-71
2023/10/18 07:54:24;;;;;;;15.30;10.40;;;;;;;;;;10025786;28;20104;-71
2023/10/18 07:59:29;;;;;;;14.23;11.85;;;;;;;;;;10027052;28;20347;-72
2023/10/18 08:04:23;;;;;;;13.80;11.50;;;;;;;;;;10024481;28;20054;-69
2023/10/18 08:09:17;;;;;;;11.90;10.43;;;;;;;;;;10026529;28;20070;-69
2023/10/18 08:14:24;;;;;;;16.50;12.57;;;;;;;;;;10029166;28;20057;-71
2023/10/18 08:19:22;;;;;;;17.05;11.30;;;;;;;;;;10025810;28;20088;-70
2023/10/18 08:24:20;;;;;;;13.47;9.97;;;;;;;;;;10025419;28;20115;-70
2023/10/18 08:29:13;;;;;;;16.10;11.48;;;;;;;;;;10026148;28;20423;-68
2023/10/18 08:34:11;;;;;;;13.65;11.13;;;;;;;;;;10024619;28;20424;-70
2023/10/18 08:39:03;;;;;;;15.23;11.00;;;;;;;;;;10021852;28;20451;-71
2023/10/18 08:44:16;;;;;;;20.60;13.45;;;;;;;;;;10031225;28;20537;-70
2023/10/18 08:49:10;;;;;;;16.05;13.10;;;;;;;;;;10023264;28;20503;-70
2023/10/18 08:54:03;;;;;;;20.60;14.75;;;;;;;;;;10022701;28;20048;-71
2023/10/18 08:58:56;;;;;;;23.17;16.92;;;;;;;;;;10022920;28;20046;-70
2023/10/18 09:03:49;;;;;;;20.20;14.95;;;;;;;;;;10039200;28;20050;-70
2023/10/18 09:08:42;;;;;;;26.83;19.65;;;;;;;;;;10030282;28;20052;-69
2023/10/18 09:13:41;;;;;;;18.02;15.85;;;;;;;;;;10047385;28;20333;-71
2023/10/18 09:18:34;;;;;;;16.30;12.15;;;;;;;;;;10033295;28;20484;-68
2023/10/18 09:23:29;;;;;;;11.27;9.85;;;;;;;;;;10031974;28;20092;-69
2023/10/18 09:33:17;;;;;;;9.68;7.72;;;;;;;;;;10038447;28;20046;-70
2023/10/18 09:38:09;;;;;;;12.18;9.30;;;;;;;;;;10032057;28;20042;-70
2023/10/18 09:43:01;;;;;;;12.35;9.40;;;;;;;;;;10031436;28;20452;-70
2023/10/18 09:47:53;;;;;;;15.88;10.73;;;;;;;;;;10029338;28;20046;-70
2023/10/18 09:52:47;;;;;;;14.25;9.57;;;;;;;;;;10044254;28;20111;-69
2023/10/18 09:57:41;;;;;;;14.23;9.30;;;;;;;;;;10028841;28;20050;-70
2023/10/18 10:02:33;;;;;;;17.42;12.77;;;;;;;;;;10042212;28;20103;-70
2023/10/18 10:07:28;;;;;;;14.70;11.07;;;;;;;;;;10028297;28;20104;-71
2023/10/18 10:12:27;;;;;;;14.50;11.23;;;;;;;;;;10044639;28;20093;-72
2023/10/18 10:17:20;;;;;;;13.88;10.98;;;;;;;;;;10027937;28;20074;-69
2023/10/18 10:22:14;;;;;;;15.98;11.05;;;;;;;;;;10030920;28;20228;-68
2023/10/18 10:27:39;;;;;;;12.80;9.80;;;;;;;;;;10044635;28;20066;-70
2023/10/18 10:32:31;;;;;;;15.23;9.10;;;;;;;;;;10030776;28;20369;-68
2023/10/18 10:37:28;;;;;;;11.85;9.40;;;;;;;;;;10029757;28;20042;-70
2023/10/18 10:42:41;;;;;;;12.18;10.20;;;;;;;;;;10034320;28;20057;-70
2023/10/18 10:47:42;;;;;;;18.52;11.45;;;;;;;;;;10028860;28;20041;-71
2023/10/18 10:52:40;;;;;;;17.38;11.15;;;;;;;;;;10024900;28;20052;-70
2023/10/18 10:57:35;;;;;;;17.33;9.32;;;;;;;;;;10025628;28;20042;-70
2023/10/18 11:02:40;;;;;;;14.35;9.20;;;;;;;;;;10024690;28;20645;-69
2023/10/18 11:07:34;;;;;;;9.75;8.60;;;;;;;;;;10028128;28;20049;-70
2023/10/18 11:12:27;;;;;;;10.32;9.15;;;;;;;;;;10023838;28;20425;-68
2023/10/18 11:17:23;;;;;;;14.00;9.95;;;;;;;;;;10025870;28;20125;-69
2023/10/18 11:22:19;;;;;;;13.00;10.63;;;;;;;;;;10025346;28;20455;-70
2023/10/18 11:27:11;;;;;;;11.18;9.65;;;;;;;;;;10027874;28;20496;-70
2023/10/18 11:32:06;;;;;;;12.88;10.65;;;;;;;;;;10031783;28;20037;-70
2023/10/18 11:37:02;;;;;;;17.67;13.35;;;;;;;;;;10027548;28;20132;-70
2023/10/18 11:41:56;;;;;;;14.57;11.32;;;;;;;;;;10032737;28;20058;-69
2023/10/18 11:46:51;;;;;;;14.25;10.82;;;;;;;;;;10042604;28;20141;-69
2023/10/18 11:51:45;;;;;;;14.23;12.73;;;;;;;;;;10048805;28;20042;-70
2023/10/18 11:56:37;;;;;;;17.23;12.32;;;;;;;;;;10030365;28;20049;-69
2023/10/18 12:01:35;;;;;;;16.65;12.73;;;;;;;;;;10044076;28;20454;-68
2023/10/18 12:06:28;;;;;;;14.00;12.27;;;;;;;;;;10033456;28;20453;-67
2023/10/18 12:11:22;;;;;;;13.50;9.77;;;;;;;;;;10036105;28;20042;-69
2023/10/18 12:16:13;;;;;;;17.35;10.05;;;;;;;;;;10040766;28;20045;-68
2023/10/18 12:21:05;;;;;;;15.52;10.27;;;;;;;;;;10044587;28;20101;-70
2023/10/18 12:26:05;;;;;;;15.13;10.32;;;;;;;;;;10024829;28;20076;-69
2023/10/18 12:31:00;;;;;;;18.23;11.27;;;;;;;;;;10023339;28;20423;-68
2023/10/18 12:35:56;;;;;;;19.77;12.98;;;;;;;;;;10020516;28;20077;-69
2023/10/18 12:40:52;;;;;;;17.42;13.80;;;;;;;;;;10022544;28;20046;-69
2023/10/18 12:45:47;;;;;;;18.10;13.40;;;;;;;;;;10023601;28;20159;-68
2023/10/18 12:50:44;;;;;;;16.55;11.13;;;;;;;;;;10024489;28;20053;-69
2023/10/18 12:55:36;;;;;;;15.40;10.05;;;;;;;;;;10040166;28;20046;-69
2023/10/18 13:00:35;;;;;;;13.02;9.80;;;;;;;;;;10024647;28;20052;-69
2023/10/18 13:05:40;;;;;;;13.55;10.68;;;;;;;;;;10024442;28;20101;-69
2023/10/18 13:10:32;;;;;;;16.23;13.07;;;;;;;;;;10040490;28;20034;-69
2023/10/18 13:15:25;;;;;;;13.85;11.35;;;;;;;;;;10027901;28;20046;-68
2023/10/18 13:20:34;;;;;;;19.42;11.65;;;;;;;;;;10027826;28;20448;-69
2023/10/18 13:25:36;;;;;;;;;;;;;;;;;;10024570;28;20052;-67
2023/10/18 13:30:44;;;;;;;16.25;12.15;;;;;;;;;;10024626;28;19932;-68
2023/10/18 13:35:39;;;;;;;30.35;14.48;;;;;;;;;;10025979;28;20076;-67
2023/10/18 13:40:36;;;;;;;22.02;14.27;;;;;;;;;;10023868;28;20472;-68
2023/10/18 13:45:28;;;;;;;18.48;13.45;;;;;;;;;;10040450;28;20049;-68
2023/10/18 13:50:22;;;;;;;17.23;14.15;;;;;;;;;;10023487;28;20046;-67
2023/10/18 13:55:18;;;;;;;16.40;13.15;;;;;;;;;;10031884;28;20145;-68
2023/10/18 14:00:14;;;;;;;19.35;12.98;;;;;;;;;;10031203;28;20483;-69
2023/10/18 14:05:09;;;;;;;17.25;13.35;;;;;;;;;;10030640;28;20124;-67
2023/10/18 14:10:08;;;;;;;16.55;14.70;;;;;;;;;;10030423;28;20045;-68
2023/10/18 14:15:00;;;;;;;25.17;16.98;;;;;;;;;;10045141;28;20045;-66
2023/10/18 14:19:55;;;;;;;20.75;16.35;;;;;;;;;;10051648;28;20499;-68
2023/10/18 14:25:13;;;;;;;20.30;15.10;;;;;;;;;;10054465;28;20104;-68
2023/10/18 14:30:06;;;;;;;22.83;13.77;;;;;;;;;;10048150;28;20045;-67
2023/10/18 14:34:58;;;;;;;20.33;15.15;;;;;;;;;;10040137;28;20050;-69
2023/10/18 14:39:55;;;;;;;19.45;14.27;;;;;;;;;;10034790;28;20104;-69
2023/10/18 14:44:47;;;;;;;27.00;13.70;;;;;;;;;;10031455;28;20049;-68
2023/10/18 14:49:39;;;;;;;19.92;14.13;;;;;;;;;;10045720;28;20148;-68
2023/10/18 14:54:31;;;;;;;20.35;13.63;;;;;;;;;;10039589;28;20041;-67
2023/10/18 14:59:23;;;;;;;23.95;15.75;;;;;;;;;;10052038;28;20049;-69
2023/10/18 15:04:15;;;;;;;19.55;13.57;;;;;;;;;;10030763;28;20049;-68
2023/10/18 15:09:08;;;;;;;20.05;14.55;;;;;;;;;;10033179;28;20041;-68
2023/10/18 15:14:00;;;;;;;19.33;15.18;;;;;;;;;;10038081;28;20038;-70
2023/10/18 15:18:52;;;;;;;21.92;14.50;;;;;;;;;;10031152;28;20061;-68
2023/10/18 15:23:44;;;;;;;16.92;13.77;;;;;;;;;;10035633;28;20112;-67
2023/10/18 15:28:38;;;;;;;19.42;15.00;;;;;;;;;;10035451;28;20034;-68
2023/10/18 15:33:30;;;;;;;20.00;13.98;;;;;;;;;;10039712;28;20038;-67
2023/10/18 15:38:23;;;;;;;23.15;14.82;;;;;;;;;;10031805;28;20104;-68
2023/10/18 15:43:15;;;;;;;21.27;13.98;;;;;;;;;;10027055;28;20053;-68
2023/10/18 15:48:11;;;;;;;22.92;14.85;;;;;;;;;;10030144;28;20049;-67
2023/10/18 15:53:06;;;;;;;20.17;16.40;;;;;;;;;;10030113;28;20037;-67
2023/10/18 15:57:57;;;;;;;28.98;20.23;;;;;;;;;;10029751;28;20379;-67
2023/10/18 16:02:50;;;;;;;21.73;17.83;;;;;;;;;;10027482;28;20156;-67
2023/10/18 16:07:42;;;;;;;22.55;16.35;;;;;;;;;;10027026;28;20059;-65
2023/10/18 16:12:34;;;;;;;19.40;16.92;;;;;;;;;;10029531;28;20071;-66
2023/10/18 16:17:26;;;;;;;24.17;14.02;;;;;;;;;;10030352;28;20077;-65
2023/10/18 16:22:18;;;;;;;19.02;15.48;;;;;;;;;;10025284;28;20437;-68
2023/10/18 16:27:13;;;;;;;18.33;15.00;;;;;;;;;;10030625;28;20041;-65
2023/10/18 16:32:05;;;;;;;98.32;71.32;;;;;;;;;;10028235;28;20113;-65
2023/10/18 16:36:57;;;;;;;17.85;15.10;;;;;;;;;;10030834;28;20038;-66
2023/10/18 16:41:49;;;;;;;16.25;13.73;;;;;;;;;;10026153;28;20341;-67
2023/10/18 16:46:41;;;;;;;16.45;14.23;;;;;;;;;;10028581;28;20376;-67
2023/10/18 16:51:33;;;;;;;16.75;13.25;;;;;;;;;;10025233;28;20052;-66
2023/10/18 16:56:25;;;;;;;18.17;14.73;;;;;;;;;;10047128;28;20110;-67
2023/10/18 17:01:18;;;;;;;25.88;15.13;;;;;;;;;;10032923;28;20077;-68
2023/10/18 17:06:13;;;;;;;20.38;14.68;;;;;;;;;;10043959;28;20056;-67
2023/10/18 17:11:12;;;;;;;19.23;13.15;;;;;;;;;;10031613;28;20421;-68
2023/10/18 17:16:04;;;;;;;19.73;13.37;;;;;;;;;;10036805;28;20088;-68
2023/10/18 17:20:56;;;;;;;17.67;13.02;;;;;;;;;;10041968;28;20057;-68
2023/10/18 17:26:08;;;;;;;16.38;13.80;;;;;;;;;;10027764;28;20126;-69
2023/10/18 17:31:01;;;;;;;21.05;14.40;;;;;;;;;;10032041;28;20054;-67
2023/10/18 17:35:52;;;;;;;19.05;15.05;;;;;;;;;;10033716;28;20142;-68
2023/10/18 17:40:44;;;;;;;18.15;15.13;;;;;;;;;;10032747;28;20041;-68
2023/10/18 17:45:37;;;;;;;22.85;14.15;;;;;;;;;;10032110;28;20140;-68
2023/10/18 17:50:32;;;;;;;20.58;14.52;;;;;;;;;;10035596;28;20546;-68
2023/10/18 17:55:24;;;;;;;21.67;15.82;;;;;;;;;;10032019;28;20050;-67
2023/10/18 18:00:24;;;;;;;23.27;17.40;;;;;;;;;;10031347;28;20456;-71
2023/10/18 18:05:21;;;;;;;23.38;17.35;;;;;;;;;;10031417;28;20065;-71
2023/10/18 18:10:13;;;;;;;24.67;17.17;;;;;;;;;;10031891;28;20318;-70
2023/10/18 18:15:11;;;;;;;24.13;18.92;;;;;;;;;;10030120;28;20328;-71
2023/10/18 18:20:08;;;;;;;20.95;16.35;;;;;;;;;;10031358;28;20049;-71
2023/10/18 18:25:00;;;;;;;23.95;17.33;;;;;;;;;;10032871;28;20120;-70
2023/10/18 18:29:52;;;;;;;26.15;19.77;;;;;;;;;;10031906;28;20041;-69
2023/10/18 18:34:44;;;;;;;25.95;19.35;;;;;;;;;;10043803;28;20046;-70
2023/10/18 18:39:37;;;;;;;29.45;21.30;;;;;;;;;;10014268;28;20060;-68
2023/10/18 18:44:29;;;;;;;24.15;19.55;;;;;;;;;;10063508;28;20041;-68
2023/10/18 18:49:21;;;;;;;30.60;21.85;;;;;;;;;;10068676;28;20383;-68
2023/10/18 18:54:12;;;;;;;24.80;20.17;;;;;;;;;;10068269;28;20464;-68
2023/10/18 18:59:04;;;;;;;24.77;18.38;;;;;;;;;;10068478;28;20045;-69
2023/10/18 19:03:56;;;;;;;25.20;18.98;;;;;;;;;;10067387;28;20085;-69
2023/10/18 19:08:48;;;;;;;27.77;20.00;;;;;;;;;;10068050;28;20060;-69
2023/10/18 19:13:41;;;;;;;25.48;19.10;;;;;;;;;;10068239;28;20128;-69
2023/10/18 19:18:34;;;;;;;24.63;20.40;;;;;;;;;;10067550;28;20045;-68
2023/10/18 19:23:26;;;;;;;26.73;19.23;;;;;;;;;;10062585;28;20555;-68
2023/10/18 19:28:18;;;;;;;26.90;20.00;;;;;;;;;;10056744;28;20468;-67
2023/10/18 19:33:10;;;;;;;26.85;20.98;;;;;;;;;;10066327;28;20049;-68
2023/10/18 19:38:02;;;;;;;26.90;18.63;;;;;;;;;;10066479;28;20065;-69
2023/10/18 19:42:54;;;;;;;24.90;19.45;;;;;;;;;;10066785;28;20060;-69
2023/10/18 19:47:45;;;;;;;27.05;22.25;;;;;;;;;;10065929;28;20052;-69
2023/10/18 19:52:37;;;;;;;25.08;20.70;;;;;;;;;;10066849;28;20053;-68
2023/10/18 19:57:31;;;;;;;26.85;20.73;;;;;;;;;;10065701;28;20063;-70
2023/10/18 20:02:22;;;;;;;31.40;23.02;;;;;;;;;;10066347;28;20049;-68
2023/10/18 20:07:15;;;;;;;33.03;23.77;;;;;;;;;;10065047;28;20037;-68
2023/10/18 20:12:08;;;;;;;31.42;24.15;;;;;;;;;;10065215;28;20068;-66
2023/10/18 20:16:59;;;;;;;34.20;26.55;;;;;;;;;;10064735;28;20049;-68
2023/10/18 20:21:51;;;;;;;36.85;27.15;;;;;;;;;;10065279;28;20103;-69
2023/10/18 20:26:43;;;;;;;36.40;27.75;;;;;;;;;;10052139;28;20045;-67
2023/10/18 20:31:35;;;;;;;40.65;28.08;;;;;;;;;;10064221;28;20609;-68
2023/10/18 20:36:27;;;;;;;37.78;27.63;;;;;;;;;;10064642;28;20053;-69
2023/10/18 20:41:19;;;;;;;45.17;30.33;;;;;;;;;;10064570;28;20472;-67
2023/10/18 20:46:17;;;;;;;44.25;30.83;;;;;;;;;;10063506;28;20096;-69
2023/10/18 20:51:10;;;;;;;56.93;36.57;;;;;;;;;;10062214;28;20046;-70
2023/10/18 20:56:05;;;;;;;43.85;35.22;;;;;;;;;;10062882;28;20702;-68
2023/10/18 21:00:57;;;;;;;52.03;35.45;;;;;;;;;;10059962;28;20042;-68
2023/10/18 21:05:50;;;;;;;48.55;34.25;;;;;;;;;;10061136;28;20462;-70
2023/10/18 21:10:42;;;;;;;41.10;33.10;;;;;;;;;;10058946;28;20099;-69
2023/10/18 21:15:34;;;;;;;45.88;32.05;;;;;;;;;;10059923;28;20147;-69
2023/10/18 21:20:27;;;;;;;39.00;28.67;;;;;;;;;;10060149;28;20041;-69
2023/10/18 21:25:19;;;;;;;38.85;29.25;;;;;;;;;;10059796;28;20042;-68
2023/10/18 21:30:12;;;;;;;42.15;31.05;;;;;;;;;;10060461;28;20047;-69
2023/10/18 21:35:06;;;;;;;38.28;30.02;;;;;;;;;;10060981;28;20081;-68
2023/10/18 21:40:10;;;;;;;38.75;29.15;;;;;;;;;;10050723;28;20100;-69
2023/10/18 21:45:07;;;;;;;41.55;28.13;;;;;;;;;;10059556;28;20111;-68
2023/10/18 21:50:01;;;;;;;41.70;28.02;;;;;;;;;;10058910;28;20128;-69
2023/10/18 21:54:56;;;;;;;37.05;29.10;;;;;;;;;;10061377;28;20045;-70
2023/10/18 21:59:49;;;;;;;43.63;29.02;;;;;;;;;;10073483;28;20049;-69
2023/10/18 22:04:43;;;;;;;39.80;28.77;;;;;;;;;;10056705;28;20053;-68
2023/10/18 22:09:35;;;;;;;42.08;30.52;;;;;;;;;;10061267;28;20092;-68
2023/10/18 22:14:26;;;;;;;38.95;27.02;;;;;;;;;;10068774;28;20055;-67
2023/10/18 22:19:18;;;;;;;33.53;24.27;;;;;;;;;;10056641;28;20076;-67
2023/10/18 22:24:19;;;;;;;32.10;25.23;;;;;;;;;;10068699;28;20114;-65
2023/10/18 22:29:11;;;;;;;32.75;24.92;;;;;;;;;;10069623;28;20069;-69
2023/10/18 22:34:03;;;;;;;37.28;27.85;;;;;;;;;;10068883;28;20063;-69
2023/10/18 22:38:56;;;;;;;40.72;27.73;;;;;;;;;;10068463;28;20052;-68
2023/10/18 22:43:51;;;;;;;42.22;28.02;;;;;;;;;;10068525;28;20041;-68
2023/10/18 22:48:50;;;;;;;33.67;25.70;;;;;;;;;;10068759;28;20041;-67
2023/10/18 22:58:37;;;;;;;43.35;30.33;;;;;;;;;;10069012;28;20049;-69
2023/10/18 23:03:31;;;;;;;36.58;27.30;;;;;;;;;;10067218;28;20069;-68
2023/10/18 23:08:47;;;;;;;39.40;27.20;;;;;;;;;;10054527;28;20045;-68
2023/10/18 23:13:47;;;;;;;34.92;27.60;;;;;;;;;;10038721;28;20045;-68
2023/10/18 23:18:53;;;;;;;38.63;29.10;;;;;;;;;;10043015;28;20084;-69
2023/10/18 23:29:00;;;;;;;46.08;31.83;;;;;;;;;;10043288;28;20475;-67
2023/10/18 23:33:54;;;;;;;38.83;30.30;;;;;;;;;;10041552;28;20132;-68
2023/10/18 23:38:46;;;;;;;40.13;27.70;;;;;;;;;;10039739;28;20046;-69
2023/10/18 23:43:48;;;;;;;37.00;28.23;;;;;;;;;;10047142;28;20049;-66
2023/10/18 23:53:59;;;;;;;33.80;26.52;;;;;;;;;;10030501;28;20050;-68
2023/10/18 23:58:51;;;;;;;39.47;30.27;;;;;;;;;;10047373;28;20136;-68
